Time;durP1;ratioP1;P1;durP2;ratioP2;P2;SDS_P1;SDS_P2;PMS_P1;PMS_P2;Temp;Humidity;BMP_temperature;BMP_pressure;BME280_temperature;BME280_humidity;BME280_pressure;Samples;Min_cycle;Max_cycle;Signal;HPM_P1;HPM_P2
2022/05/04 00:01:29;;;;;;;23.07;13.77;;;10.20;32.00;;;;;;5116793;28;20221;-70
2022/05/04 00:03:55;;;;;;;23.80;14.10;;;10.20;31.30;;;;;;5116719;28;20182;-71
2022/05/04 00:06:22;;;;;;;25.30;12.30;;;10.20;30.70;;;;;;5116673;28;20236;-69
2022/05/04 00:08:47;;;;;;;19.70;12.80;;;10.20;31.20;;;;;;5116690;28;20171;-70
2022/05/04 00:11:14;;;;;;;23.93;12.77;;;10.20;32.90;;;;;;5116772;28;20220;-70
2022/05/04 00:13:39;;;;;;;22.63;11.93;;;10.30;31.70;;;;;;5116390;28;20211;-70
2022/05/04 00:16:06;;;;;;;20.07;12.33;;;10.40;28.30;;;;;;5116402;28;20168;-70
2022/05/04 00:18:32;;;;;;;31.50;13.10;;;10.40;25.50;;;;;;5116570;28;20163;-70
2022/05/04 00:20:58;;;;;;;22.53;12.10;;;10.40;23.20;;;;;;5116360;28;20209;-70
2022/05/04 00:23:24;;;;;;;19.83;12.17;;;10.40;20.50;;;;;;5098214;28;20220;-70
2022/05/04 00:25:50;;;;;;;20.80;11.70;;;10.40;17.60;;;;;;5116445;28;20172;-70
2022/05/04 00:28:16;;;;;;;20.80;11.50;;;10.30;20.40;;;;;;5115830;28;20195;-69
2022/05/04 00:30:41;;;;;;;18.60;11.27;;;10.30;19.40;;;;;;5116216;28;20246;-70
2022/05/04 00:33:07;;;;;;;22.00;12.20;;;10.20;19.00;;;;;;5116241;28;20619;-70
2022/05/04 00:35:34;;;;;;;18.10;12.23;;;10.20;21.90;;;;;;5116051;28;20171;-70
2022/05/04 00:38:00;;;;;;;23.57;12.90;;;10.30;19.80;;;;;;5116082;28;20197;-70
2022/05/04 00:40:25;;;;;;;22.77;11.80;;;10.20;22.70;;;;;;5115283;28;20171;-69
2022/05/04 00:42:51;;;;;;;20.70;12.07;;;10.20;22.70;;;;;;5115564;28;20179;-69
2022/05/04 00:45:17;;;;;;;20.80;11.87;;;10.20;25.10;;;;;;5115952;28;20171;-69
2022/05/04 00:47:42;;;;;;;21.70;12.50;;;10.00;27.80;;;;;;5115796;27;20174;-69
2022/05/04 00:50:09;;;;;;;22.67;13.00;;;9.90;33.70;;;;;;5115806;28;20179;-70
2022/05/04 00:52:36;;;;;;;28.13;12.60;;;10.00;32.10;;;;;;5115752;28;20206;-70
2022/05/04 00:55:05;;;;;;;20.47;12.20;;;9.90;33.00;;;;;;5115916;28;20167;-70
2022/05/04 01:00:20;;;;;;;19.67;12.33;;;10.10;29.30;;;;;;5116138;28;20714;-70
2022/05/04 01:02:45;;;;;;;23.40;12.83;;;10.10;27.70;;;;;;5115745;28;20175;-70
2022/05/04 01:05:12;;;;;;;22.23;11.93;;;10.10;25.60;;;;;;5115748;28;20178;-68
2022/05/04 01:07:40;;;;;;;22.07;12.33;;;10.20;22.30;;;;;;5115815;28;20243;-69
2022/05/04 01:10:06;;;;;;;19.13;12.27;;;10.10;21.00;;;;;;5115773;28;20175;-69
2022/05/04 01:12:32;;;;;;;20.70;11.73;;;10.10;19.60;;;;;;5115355;28;20281;-69
2022/05/04 01:14:59;;;;;;;21.33;11.73;;;10.00;21.10;;;;;;5115550;28;20185;-69
2022/05/04 01:17:27;;;;;;;25.50;12.83;;;10.00;21.80;;;;;;5115393;28;20190;-69
2022/05/04 01:19:55;;;;;;;21.27;12.30;;;10.00;22.90;;;;;;5115677;28;20163;-69
2022/05/04 01:22:24;;;;;;;24.07;12.83;;;9.90;25.00;;;;;;5115581;28;20175;-70
2022/05/04 01:24:50;;;;;;;20.43;12.47;;;9.90;26.20;;;;;;5115432;28;20167;-70
2022/05/04 01:27:15;;;;;;;21.73;13.50;;;9.80;26.10;;;;;;5115029;28;20174;-70
2022/05/04 01:29:41;;;;;;;19.50;11.83;;;9.80;27.00;;;;;;5114957;28;20595;-68
2022/05/04 01:32:07;;;;;;;25.17;12.10;;;9.70;29.90;;;;;;5115346;28;20326;-69
2022/05/04 01:34:33;;;;;;;22.13;13.27;;;9.60;34.20;;;;;;5115369;28;20168;-69
2022/05/04 01:37:00;;;;;;;25.30;13.83;;;9.50;37.20;;;;;;5115187;28;20514;-69
2022/05/04 01:39:25;;;;;;;19.33;12.70;;;9.40;40.80;;;;;;5115039;28;20159;-69
2022/05/04 01:42:03;;;;;;;25.00;12.50;;;9.40;44.00;;;;;;5114546;28;20168;-69
2022/05/04 01:44:33;;;;;;;23.20;12.60;;;9.30;44.90;;;;;;5114833;28;20171;-69
2022/05/04 01:46:59;;;;;;;20.50;11.87;;;9.30;47.00;;;;;;5115141;28;20183;-69
2022/05/04 01:49:25;;;;;;;18.27;12.00;;;9.30;46.90;;;;;;5114852;28;20175;-70
2022/05/04 01:51:50;;;;;;;20.10;12.17;;;9.40;45.60;;;;;;5113866;28;20171;-69
2022/05/04 01:54:16;;;;;;;24.73;12.97;;;9.50;40.50;;;;;;5114827;28;20729;-69
2022/05/04 01:56:42;;;;;;;21.57;12.93;;;9.50;40.40;;;;;;5114195;28;20170;-70
2022/05/04 01:59:07;;;;;;;23.27;13.03;;;9.50;40.40;;;;;;5114518;28;20175;-69
2022/05/04 02:01:33;;;;;;;21.53;12.60;;;9.40;41.20;;;;;;5114686;28;20220;-69
2022/05/04 02:03:59;;;;;;;19.77;12.60;;;9.30;46.40;;;;;;5114942;28;20175;-69
2022/05/04 02:06:26;;;;;;;21.73;12.23;;;9.20;50.50;;;;;;5114678;28;20175;-69
2022/05/04 02:08:52;;;;;;;25.07;12.90;;;9.20;52.20;;;;;;5114635;28;20250;-69
2022/05/04 02:11:18;;;;;;;23.40;12.77;;;9.30;49.80;;;;;;5114250;28;20159;-69
2022/05/04 02:13:43;;;;;;;24.13;13.03;;;9.20;52.30;;;;;;5114479;28;20197;-69
2022/05/04 02:16:09;;;;;;;21.90;13.10;;;9.20;51.70;;;;;;5114348;28;20221;-70
2022/05/04 02:18:34;;;;;;;23.30;12.97;;;9.20;51.90;;;;;;5114346;28;20202;-70
2022/05/04 02:21:00;;;;;;;27.10;13.20;;;9.20;50.50;;;;;;5114175;28;20174;-70
2022/05/04 02:23:26;;;;;;;25.47;13.07;;;9.20;49.10;;;;;;5114465;28;20206;-70
2022/05/04 02:25:52;;;;;;;25.37;12.97;;;9.20;49.10;;;;;;5113831;28;20667;-70
2022/05/04 02:28:18;;;;;;;27.50;13.20;;;9.30;49.00;;;;;;5114204;28;20622;-70
2022/05/04 02:30:44;;;;;;;25.70;13.53;;;9.20;48.80;;;;;;5114233;28;20159;-70
2022/05/04 02:33:10;;;;;;;26.17;13.47;;;9.30;49.90;;;;;;5114016;28;20270;-70
2022/05/04 02:38:21;;;;;;;26.67;11.77;;;9.20;50.80;;;;;;5113901;28;20284;-71
2022/05/04 02:40:47;;;;;;;23.60;13.30;;;9.20;53.20;;;;;;5113806;28;20175;-70
2022/05/04 02:43:13;;;;;;;25.00;13.10;;;9.10;51.00;;;;;;5113910;28;20258;-70
2022/05/04 02:45:39;;;;;;;22.63;12.93;;;9.10;52.70;;;;;;5113757;28;20264;-68
2022/05/04 02:48:06;;;;;;;27.43;13.17;;;9.10;54.70;;;;;;5113789;28;20190;-69
2022/05/04 02:50:31;;;;;;;24.40;13.40;;;9.20;52.40;;;;;;5113786;28;20175;-69
2022/05/04 02:52:57;;;;;;;25.90;13.27;;;9.10;51.80;;;;;;5113281;28;20668;-69
2022/05/04 02:55:23;;;;;;;22.83;13.47;;;9.10;52.30;;;;;;5113840;28;20209;-69
2022/05/04 02:57:48;;;;;;;24.37;13.70;;;9.20;52.80;;;;;;5113559;28;20223;-69
2022/05/04 03:00:14;;;;;;;24.43;13.63;;;9.10;54.20;;;;;;5113695;28;20181;-69
2022/05/04 03:02:40;;;;;;;20.00;13.10;;;9.10;57.20;;;;;;5113537;28;20625;-69
2022/05/04 03:05:07;;;;;;;25.87;13.77;;;9.00;58.50;;;;;;5113520;28;20687;-69
2022/05/04 03:07:33;;;;;;;28.53;13.83;;;9.00;63.30;;;;;;5113247;28;20246;-69
2022/05/04 03:09:59;;;;;;;25.37;14.67;;;8.90;66.30;;;;;;5113633;28;20174;-69
2022/05/04 03:12:25;;;;;;;26.57;13.63;;;8.90;67.30;;;;;;5113222;28;20285;-69
2022/05/04 03:14:52;;;;;;;30.30;14.50;;;8.90;68.50;;;;;;5113589;28;20293;-69
2022/05/04 03:17:17;;;;;;;21.93;13.90;;;8.90;69.40;;;;;;5113276;28;20167;-69
2022/05/04 03:19:44;;;;;;;25.20;14.63;;;8.80;68.50;;;;;;5113271;28;20216;-69
2022/05/04 03:22:10;;;;;;;30.47;14.97;;;8.80;71.40;;;;;;5112185;28;20179;-69
2022/05/04 03:24:36;;;;;;;28.53;14.37;;;8.80;72.90;;;;;;5095140;28;20179;-69
2022/05/04 03:27:02;;;;;;;26.03;14.60;;;8.80;72.10;;;;;;5113274;28;20649;-69
2022/05/04 03:29:28;;;;;;;24.53;14.43;;;8.90;74.30;;;;;;5112721;28;20236;-69
2022/05/04 03:31:53;;;;;;;26.53;14.10;;;8.90;68.80;;;;;;5113157;28;20175;-69
2022/05/04 03:34:19;;;;;;;24.63;14.27;;;9.10;69.80;;;;;;5112884;28;20211;-69
2022/05/04 03:36:45;;;;;;;29.07;14.83;;;9.10;65.40;;;;;;5112999;28;20218;-69
2022/05/04 03:39:10;;;;;;;22.17;14.27;;;9.10;62.30;;;;;;5113584;28;20262;-69
2022/05/04 03:41:36;;;;;;;22.27;13.03;;;9.10;60.00;;;;;;5112616;28;20626;-69
2022/05/04 03:44:02;;;;;;;22.87;14.10;;;9.20;59.90;;;;;;5113287;28;20216;-69
2022/05/04 03:46:40;;;;;;;25.43;13.43;;;9.20;58.20;;;;;;5112600;28;20167;-69
2022/05/04 03:49:07;;;;;;;22.53;13.30;;;9.30;54.10;;;;;;5113050;28;20167;-69
2022/05/04 03:51:33;;;;;;;20.87;13.07;;;9.30;48.90;;;;;;5112666;28;20649;-70
2022/05/04 03:53:58;;;;;;;27.37;13.57;;;9.20;47.80;;;;;;5112714;28;20202;-70
2022/05/04 03:56:24;;;;;;;21.50;12.97;;;9.20;49.20;;;;;;5113120;28;20198;-69
2022/05/04 03:58:50;;;;;;;24.07;12.70;;;9.30;48.30;;;;;;5112064;28;20230;-69
2022/05/04 04:01:17;;;;;;;28.73;12.93;;;9.30;45.10;;;;;;5113099;28;20160;-69
2022/05/04 04:03:43;;;;;;;29.53;12.87;;;9.30;44.00;;;;;;5112774;28;20172;-69
2022/05/04 04:06:08;;;;;;;21.70;13.33;;;9.30;44.60;;;;;;5112316;28;20187;-70
2022/05/04 04:08:34;;;;;;;21.67;12.87;;;9.40;45.20;;;;;;5112594;28;20183;-70
2022/05/04 04:11:00;;;;;;;30.67;12.93;;;9.60;39.70;;;;;;5112678;28;20167;-70
2022/05/04 04:13:26;;;;;;;28.27;13.33;;;9.60;38.80;;;;;;5112613;28;20695;-70
2022/05/04 04:15:51;;;;;;;24.33;13.13;;;9.70;34.10;;;;;;5114839;28;20175;-70
2022/05/04 04:18:19;;;;;;;24.83;13.80;;;9.70;31.50;;;;;;5116521;28;20639;-70
2022/05/04 04:23:29;;;;;;;20.80;12.97;;;9.90;22.60;;;;;;5116364;28;20178;-70
2022/05/04 04:25:55;;;;;;;26.17;12.50;;;9.90;19.90;;;;;;5115322;28;20159;-70
2022/05/04 04:28:21;;;;;;;18.03;11.70;;;9.90;16.30;;;;;;5116146;28;20527;-70
2022/05/04 04:30:46;;;;;;;19.77;11.47;;;9.80;10.80;;;;;;5115640;28;20255;-70
2022/05/04 04:33:12;;;;;;;23.83;12.93;;;9.60;15.10;;;;;;5097358;28;20260;-70
2022/05/04 04:35:38;;;;;;;22.40;12.60;;;9.60;19.10;;;;;;5115603;28;20163;-69
2022/05/04 04:38:04;;;;;;;19.10;10.97;;;9.60;19.50;;;;;;5116082;28;20164;-70
2022/05/04 04:40:30;;;;;;;24.60;12.50;;;9.60;18.80;;;;;;5115541;28;20662;-70
2022/05/04 04:42:55;;;;;;;23.40;12.77;;;9.50;21.30;;;;;;5115788;28;20183;-69
2022/05/04 04:45:21;;;;;;;27.03;11.90;;;9.40;25.70;;;;;;5115495;28;20250;-69
2022/05/04 04:47:48;;;;;;;21.60;12.03;;;9.40;28.60;;;;;;5115214;28;20185;-69
2022/05/04 04:50:14;;;;;;;26.03;12.97;;;9.40;30.80;;;;;;5115304;28;20167;-70
2022/05/04 04:52:40;;;;;;;23.77;12.10;;;9.50;30.00;;;;;;5114736;28;20191;-70
2022/05/04 04:55:06;;;;;;;20.20;12.03;;;9.60;26.40;;;;;;5114897;28;20179;-70
2022/05/04 04:57:33;;;;;;;25.00;11.97;;;9.80;22.10;;;;;;5115045;28;20246;-70
2022/05/04 04:59:59;;;;;;;23.00;12.70;;;9.90;17.40;;;;;;5114353;28;20182;-70
2022/05/04 05:02:25;;;;;;;22.90;12.87;;;10.00;13.20;;;;;;5115050;28;20178;-70
2022/05/04 05:04:50;;;;;;;24.83;12.13;;;10.10;11.70;;;;;;5114790;28;20179;-69
2022/05/04 05:07:16;;;;;;;22.47;12.20;;;10.50;11.30;;;;;;5114193;28;20617;-70
2022/05/04 05:09:41;;;;;;;18.37;11.33;;;10.70;1.00;;;;;;5114780;28;20178;-70
2022/05/04 05:12:08;;;;;;;22.57;11.67;;;10.90;1.00;;;;;;5114657;28;20630;-70
2022/05/04 05:17:17;;;;;;;22.23;11.43;;;12.10;1.00;;;;;;5114071;28;20253;-69
2022/05/04 05:19:43;;;;;;;18.97;10.67;;;12.70;1.00;;;;;;5114075;28;20220;-69
2022/05/04 05:22:09;;;;;;;22.67;10.67;;;13.30;1.00;;;;;;5114929;28;20171;-70
2022/05/04 05:24:35;;;;;;;19.47;10.80;;;14.30;1.00;;;;;;5114560;28;20175;-70
2022/05/04 05:27:00;;;;;;;17.77;10.67;;;15.10;66.30;;;;;;5113318;28;20267;-70
2022/05/04 05:29:26;;;;;;;15.03;10.50;;;15.70;1.00;;;;;;5114012;28;20187;-70
2022/05/04 05:31:52;;;;;;;14.50;10.63;;;15.60;99.90;;;;;;5113796;28;20175;-71
2022/05/04 05:34:17;;;;;;;18.63;10.23;;;16.00;1.00;;;;;;5112689;28;20234;-72
2022/05/04 05:36:44;;;;;;;15.57;9.77;;;16.20;99.90;;;;;;5113386;28;20304;-72
2022/05/04 05:39:10;;;;;;;17.63;10.63;;;17.40;99.90;;;;;;5113082;28;20175;-71
2022/05/04 05:41:36;;;;;;;19.23;10.43;;;18.40;1.00;;;;;;5113518;28;20175;-71
2022/05/04 05:44:01;;;;;;;19.33;10.70;;;18.10;1.00;;;;;;5113741;28;20179;-72
2022/05/04 05:46:29;;;;;;;19.20;10.40;;;18.50;1.00;;;;;;5113389;28;20607;-73
2022/05/04 05:48:54;;;;;;;20.70;9.82;;;19.00;1.00;;;;;;5113560;28;20167;-73
2022/05/04 05:51:20;;;;;;;21.20;10.20;;;18.60;99.90;;;;;;5113209;28;20176;-73
2022/05/04 05:53:46;;;;;;;19.03;9.60;;;18.40;1.00;;;;;;5112745;28;20207;-73
2022/05/04 05:56:12;;;;;;;18.42;10.00;;;17.90;1.00;;;;;;5113822;28;20166;-73
2022/05/04 05:58:37;;;;;;;25.58;10.20;;;18.90;99.90;;;;;;5113008;28;20280;-73
2022/05/04 06:01:03;;;;;;;18.98;9.48;;;19.60;99.90;;;;;;5112002;28;20163;-71
2022/05/04 06:03:29;;;;;;;18.92;10.05;;;20.90;99.90;;;;;;5113038;28;20247;-73
2022/05/04 06:05:55;;;;;;;14.95;9.63;;;20.40;99.90;;;;;;5113445;28;20216;-73
2022/05/04 06:08:20;;;;;;;22.73;9.68;;;21.40;99.90;;;;;;5113541;28;20258;-73
2022/05/04 06:10:46;;;;;;;16.02;9.70;;;22.70;99.90;;;;;;5113041;28;20167;-73
2022/05/04 06:13:12;;;;;;;13.43;9.60;;;22.60;99.90;;;;;;5113111;28;20709;-73
2022/05/04 06:15:38;;;;;;;18.80;9.18;;;22.40;99.90;;;;;;5094252;28;20235;-72
2022/05/04 06:18:04;;;;;;;19.58;9.35;;;23.00;99.90;;;;;;5112112;28;20250;-73
2022/05/04 06:20:31;;;;;;;24.05;10.07;;;22.10;99.90;;;;;;5113077;28;20250;-73
2022/05/04 06:22:57;;;;;;;23.80;9.95;;;22.90;99.90;;;;;;5112858;28;20199;-74
2022/05/04 06:25:23;;;;;;;18.17;9.32;;;22.60;99.90;;;;;;5112644;28;20579;-74
2022/05/04 06:27:48;;;;;;;17.73;9.75;;;22.60;99.90;;;;;;5112567;28;20195;-76
2022/05/04 06:35:42;;;;;;;20.70;9.85;;;24.20;99.90;;;;;;5112570;28;20264;-76
2022/05/04 06:38:09;;;;;;;20.63;10.25;;;24.60;99.90;;;;;;5111377;28;20198;-76
2022/05/04 06:40:34;;;;;;;15.52;8.82;;;25.90;99.90;;;;;;5094133;28;20544;-74
2022/05/04 06:43:00;;;;;;;18.77;11.65;;;25.80;99.90;;;;;;5112881;28;20258;-72
2022/05/04 06:45:26;;;;;;;18.02;9.68;;;25.90;99.90;;;;;;5111219;28;20250;-73
2022/05/04 06:47:51;;;;;;;17.85;9.65;;;25.60;99.90;;;;;;5103418;28;20260;-74
2022/05/04 06:50:17;;;;;;;13.68;9.25;;;25.70;99.90;;;;;;5104460;27;20171;-75
2022/05/04 06:52:43;;;;;;;14.57;9.05;;;25.10;99.90;;;;;;5114152;27;20249;-73
2022/05/04 06:55:09;;;;;;;12.23;8.43;;;23.80;99.90;;;;;;5106093;28;20615;-74
2022/05/04 06:57:36;;;;;;;14.10;8.98;;;23.00;99.90;;;;;;5092822;28;20531;-76
2022/05/04 07:00:04;;;;;;;12.27;8.88;;;24.10;99.90;;;;;;5111681;28;20175;-75
2022/05/04 07:02:33;;;;;;;11.63;8.32;;;24.90;99.90;;;;;;5092888;28;20532;-76
2022/05/04 07:05:04;;;;;;;12.95;8.77;;;26.30;99.90;;;;;;5111173;28;20521;-77
2022/05/04 07:07:29;;;;;;;12.57;8.93;;;26.90;99.90;;;;;;5111464;28;20610;-75
2022/05/04 07:09:55;;;;;;;13.90;8.65;;;25.60;99.20;;;;;;5112007;28;20177;-77
2022/05/04 07:12:21;;;;;;;12.57;8.40;;;25.80;99.90;;;;;;5110978;28;20253;-75
2022/05/04 07:14:47;;;;;;;13.35;9.18;;;26.90;99.70;;;;;;5110998;28;20171;-77
2022/05/04 07:17:13;;;;;;;13.63;9.20;;;28.00;93.90;;;;;;5111853;28;20186;-76
2022/05/04 07:19:38;;;;;;;13.95;8.68;;;28.70;84.50;;;;;;5111448;28;20581;-77
2022/05/04 07:22:04;;;;;;;10.82;8.70;;;28.60;77.60;;;;;;5111419;28;20172;-77
2022/05/04 07:24:30;;;;;;;11.13;8.43;;;29.10;70.40;;;;;;5111842;28;20167;-78
2022/05/04 07:26:56;;;;;;;14.98;9.65;;;27.50;67.70;;;;;;5111490;28;20675;-76
2022/05/04 07:29:21;;;;;;;14.30;9.05;;;27.80;63.10;;;;;;5111773;28;20187;-75
2022/05/04 07:31:47;;;;;;;17.35;9.13;;;28.10;62.20;;;;;;5111665;28;20171;-79
2022/05/04 07:34:14;;;;;;;17.42;9.43;;;28.00;62.50;;;;;;5111139;28;20218;-80
2022/05/04 07:36:40;;;;;;;10.15;9.05;;;28.80;57.70;;;;;;5093781;28;20179;-79
2022/05/04 07:39:06;;;;;;;15.88;9.15;;;27.60;56.80;;;;;;5113049;28;20167;-79
2022/05/04 07:44:15;;;;;;;18.60;9.85;;;26.60;57.10;;;;;;5111661;28;20369;-79
2022/05/04 07:46:42;;;;;;;16.27;9.40;;;26.60;59.80;;;;;;5112161;28;20278;-80
2022/05/04 07:49:07;;;;;;;14.75;9.77;;;26.20;60.10;;;;;;5113312;28;20286;-79
2022/05/04 07:51:33;;;;;;;14.98;9.45;;;26.70;60.00;;;;;;5114630;28;20184;-78
2022/05/04 07:53:59;;;;;;;14.50;9.20;;;28.30;49.70;;;;;;5116457;28;20566;-79
2022/05/04 07:56:24;;;;;;;13.43;9.32;;;29.50;48.50;;;;;;5115867;28;20250;-77
2022/05/04 07:58:50;;;;;;;14.45;10.27;;;29.90;39.80;;;;;;5114714;28;20623;-78
2022/05/04 08:04:19;;;;;;;13.57;11.32;;;29.70;38.30;;;;;;5110524;28;20330;-76
2022/05/04 08:06:45;;;;;;;12.32;9.68;;;30.00;36.00;;;;;;5105069;28;20204;-76
2022/05/04 08:09:11;;;;;;;14.88;11.02;;;28.10;37.40;;;;;;5104908;28;20175;-76
2022/05/04 08:11:37;;;;;;;17.83;11.85;;;28.40;33.40;;;;;;5099237;28;20602;-74
2022/05/04 08:14:03;;;;;;;14.20;11.35;;;28.90;34.40;;;;;;5106124;28;20219;-76
2022/05/04 08:16:28;;;;;;;16.77;11.68;;;28.70;28.30;;;;;;5114703;28;20630;-76
2022/05/04 08:18:54;;;;;;;14.70;12.25;;;28.80;31.40;;;;;;5114404;28;20180;-75
2022/05/04 08:21:20;;;;;;;16.65;12.05;;;30.00;29.40;;;;;;5114387;28;20171;-75
2022/05/04 08:23:45;;;;;;;16.35;12.63;;;31.10;24.60;;;;;;5114327;28;20178;-76
2022/05/04 08:26:12;;;;;;;15.10;12.43;;;31.00;22.00;;;;;;5115009;28;20205;-76
2022/05/04 08:28:38;;;;;;;15.45;11.90;;;30.80;20.70;;;;;;5114508;28;20600;-77
2022/05/04 08:31:05;;;;;;;16.52;11.90;;;31.10;20.30;;;;;;5114196;28;20175;-77
2022/05/04 08:33:31;;;;;;;17.08;12.82;;;30.40;18.50;;;;;;5114343;28;20696;-76
2022/05/04 08:35:56;;;;;;;13.63;12.32;;;28.60;21.30;;;;;;5114362;28;20172;-76
2022/05/04 08:38:22;;;;;;;15.57;13.07;;;29.20;18.30;;;;;;5114688;28;20167;-77
2022/05/04 08:40:50;;;;;;;15.57;12.82;;;28.70;21.30;;;;;;5114731;28;20510;-76
2022/05/04 08:43:18;;;;;;;17.48;13.23;;;28.90;23.30;;;;;;5114461;28;20183;-76
2022/05/04 08:45:48;;;;;;;15.98;13.13;;;29.80;20.80;;;;;;5114055;28;20167;-75
2022/05/04 08:48:14;;;;;;;17.13;12.95;;;29.90;18.50;;;;;;5114153;28;20182;-76
2022/05/04 08:50:40;;;;;;;16.95;14.13;;;29.80;16.60;;;;;;5115098;28;20227;-76
2022/05/04 08:53:07;;;;;;;17.08;14.55;;;29.60;15.10;;;;;;5115385;28;20550;-77
2022/05/04 08:55:37;;;;;;;22.20;14.35;;;28.90;19.60;;;;;;5115511;28;20168;-77
2022/05/04 08:58:03;;;;;;;19.67;15.07;;;29.10;20.10;;;;;;5115202;28;20725;-77
2022/05/04 09:00:28;;;;;;;21.00;15.45;;;26.70;19.80;;;;;;5116911;28;20168;-77
2022/05/04 09:02:54;;;;;;;22.23;16.98;;;26.70;24.20;;;;;;5098025;28;20680;-78
2022/05/04 09:05:33;;;;;;;20.00;15.77;;;26.90;21.80;;;;;;5121416;28;20172;-79
2022/05/04 09:07:59;;;;;;;22.15;16.48;;;27.40;23.30;;;;;;5116224;28;20171;-78
2022/05/04 09:10:27;;;;;;;21.58;16.00;;;27.20;24.00;;;;;;5116857;28;20512;-78
2022/05/04 09:12:55;;;;;;;23.13;17.10;;;27.50;23.00;;;;;;5114002;28;20205;-78
2022/05/04 09:15:28;;;;;;;19.55;16.60;;;25.60;27.70;;;;;;5115734;28;20183;-78
2022/05/04 09:18:16;;;;;;;20.85;16.70;;;25.30;31.30;;;;;;5114622;28;20711;-77
2022/05/04 09:20:55;;;;;;;19.42;15.23;;;25.80;32.90;;;;;;5100713;28;20174;-77
2022/05/04 09:23:32;;;;;;;22.35;15.10;;;25.30;31.10;;;;;;5116647;28;20178;-80
2022/05/04 09:26:05;;;;;;;16.67;14.82;;;24.80;36.90;;;;;;5123518;28;20231;-78
2022/05/04 09:28:32;;;;;;;18.02;14.07;;;25.90;31.90;;;;;;5113591;28;20198;-79
2022/05/04 09:31:03;;;;;;;19.42;14.65;;;26.50;30.80;;;;;;5116901;28;20175;-78
2022/05/04 09:33:32;;;;;;;16.73;14.55;;;27.60;28.30;;;;;;5118103;28;20272;-78
2022/05/04 09:35:59;;;;;;;19.27;14.75;;;28.40;26.00;;;;;;5116789;28;20174;-79
2022/05/04 09:46:56;;;;;;;15.68;13.57;;;29.60;16.40;;;;;;5089187;28;20225;-79
2022/05/04 09:49:27;;;;;;;17.45;14.68;;;30.00;14.20;;;;;;5113152;28;20187;-77
2022/05/04 09:51:54;;;;;;;14.98;12.88;;;28.90;15.80;;;;;;5112906;28;20175;-78
2022/05/04 09:54:22;;;;;;;17.48;14.82;;;29.00;15.60;;;;;;5095567;28;20203;-80
2022/05/04 09:56:53;;;;;;;21.65;14.98;;;29.00;16.20;;;;;;5101663;28;20163;-80
2022/05/04 09:59:25;;;;;;;21.38;14.95;;;29.90;15.00;;;;;;5114172;28;20183;-79
2022/05/04 10:01:51;;;;;;;17.70;14.82;;;30.00;12.90;;;;;;5112405;28;20204;-80
2022/05/04 10:04:18;;;;;;;26.08;14.40;;;29.80;10.40;;;;;;5112700;28;20171;-79
2022/05/04 10:06:44;;;;;;;18.52;13.60;;;29.00;14.50;;;;;;5119259;28;20255;-80
2022/05/04 10:09:11;;;;;;;17.15;14.20;;;29.40;10.60;;;;;;5119736;28;20669;-80
2022/05/04 10:11:37;;;;;;;15.98;13.18;;;28.90;12.20;;;;;;5116515;28;20254;-79
2022/05/04 10:14:12;;;;;;;15.43;12.10;;;29.20;8.50;;;;;;5112421;28;20206;-81
2022/05/04 10:17:11;;;;;;;14.13;12.43;;;29.40;8.40;;;;;;5117942;28;20175;-81
2022/05/04 10:19:42;;;;;;;16.20;14.00;;;27.90;12.70;;;;;;5105872;28;20649;-81
2022/05/04 10:22:12;;;;;;;14.95;13.45;;;26.30;18.90;;;;;;5113267;28;20167;-81
2022/05/04 10:24:38;;;;;;;16.88;13.15;;;26.10;18.20;;;;;;5112663;28;20241;-81
2022/05/04 10:27:22;;;;;;;16.95;13.27;;;26.70;21.20;;;;;;5113524;28;20159;-82
2022/05/04 10:32:44;;;;;;;16.73;13.32;;;28.00;15.60;;;;;;5099722;28;20220;-80
2022/05/04 10:35:30;;;;;;;15.98;12.02;;;27.80;15.00;;;;;;5112618;28;20167;-81
2022/05/04 10:37:57;;;;;;;17.08;12.45;;;28.50;13.50;;;;;;5112624;28;20246;-83
2022/05/04 10:40:45;;;;;;;16.98;12.77;;;28.90;10.90;;;;;;5112660;28;20220;-81
2022/05/04 10:43:13;;;;;;;14.25;11.15;;;28.10;13.00;;;;;;5113382;28;20170;-80
2022/05/04 10:45:41;;;;;;;17.42;12.65;;;28.30;12.50;;;;;;5113130;28;20166;-83
2022/05/04 10:48:18;;;;;;;15.13;12.38;;;28.50;10.50;;;;;;5112320;28;20171;-81
2022/05/04 10:50:59;;;;;;;14.45;12.95;;;28.60;11.50;;;;;;5113113;28;20239;-82
2022/05/04 10:53:25;;;;;;;16.45;12.80;;;28.50;9.10;;;;;;5112512;28;20206;-82
2022/05/04 10:56:03;;;;;;;14.15;12.15;;;28.40;10.70;;;;;;5112587;28;20172;-82
2022/05/04 10:58:32;;;;;;;13.45;12.07;;;28.40;11.80;;;;;;5112486;28;20278;-83
2022/05/04 11:01:12;;;;;;;20.65;12.63;;;27.90;12.00;;;;;;5113296;28;20254;-82
2022/05/04 11:03:48;;;;;;;14.27;12.15;;;27.70;12.20;;;;;;5112955;28;20167;-81
2022/05/04 11:06:23;;;;;;;15.00;11.18;;;27.80;11.20;;;;;;5112098;28;20181;-81
2022/05/04 11:08:49;;;;;;;15.57;11.50;;;26.70;13.80;;;;;;5112552;28;20167;-82
2022/05/04 11:11:15;;;;;;;12.50;11.13;;;26.70;1.00;;;;;;5111961;28;20505;-82
2022/05/04 11:13:43;;;;;;;14.05;10.90;;;27.20;6.80;;;;;;5112130;28;20195;-84
2022/05/04 11:16:09;;;;;;;15.85;10.52;;;27.60;7.00;;;;;;5112720;28;20626;-82
2022/05/04 11:18:35;;;;;;;13.90;10.70;;;28.40;1.00;;;;;;5094289;28;20194;-82
2022/05/04 11:21:05;;;;;;;12.30;9.02;;;27.60;3.30;;;;;;5093830;28;20167;-82
2022/05/04 11:23:31;;;;;;;14.85;11.25;;;27.40;7.40;;;;;;5094959;28;20167;-83
2022/05/04 11:25:57;;;;;;;13.10;10.02;;;28.00;4.40;;;;;;5117181;28;20189;-81
2022/05/04 11:28:23;;;;;;;12.10;10.88;;;27.90;7.30;;;;;;5116115;28;20666;-81
2022/05/04 11:30:51;;;;;;;13.05;11.00;;;27.70;8.00;;;;;;5116889;28;20191;-81
2022/05/04 11:33:18;;;;;;;11.10;9.93;;;27.90;8.90;;;;;;5116148;28;20729;-81
2022/05/04 11:35:44;;;;;;;14.00;12.50;;;27.70;18.30;;;;;;5097139;28;20175;-81
2022/05/04 11:38:20;;;;;;;14.10;12.30;;;27.00;27.80;;;;;;5116503;28;20182;-79
2022/05/04 11:40:47;;;;;;;24.42;12.68;;;24.90;18.20;;;;;;5115259;28;20526;-76
2022/05/04 11:43:35;;;;;;;13.93;11.60;;;24.70;22.70;;;;;;5115344;28;20175;-80
2022/05/04 11:46:06;;;;;;;16.77;11.30;;;25.10;25.60;;;;;;5096345;28;20199;-78
2022/05/04 11:48:42;;;;;;;14.20;10.32;;;25.60;23.50;;;;;;5114866;28;20214;-75
2022/05/04 11:51:13;;;;;;;14.05;10.15;;;25.50;22.50;;;;;;5115522;28;20174;-79
2022/05/04 11:53:39;;;;;;;14.32;9.70;;;25.30;22.20;;;;;;5108689;28;20235;-78
2022/05/04 11:56:07;;;;;;;12.32;9.00;;;25.30;23.50;;;;;;5113786;28;20183;-78
2022/05/04 11:58:36;;;;;;;11.65;10.32;;;25.80;20.10;;;;;;5114203;28;20226;-78
2022/05/04 12:01:04;;;;;;;15.38;10.73;;;25.70;22.10;;;;;;5115218;28;20167;-80
2022/05/04 12:03:32;;;;;;;12.23;11.07;;;25.20;23.40;;;;;;5115062;28;20189;-78
2022/05/04 12:06:00;;;;;;;11.98;9.73;;;24.50;24.90;;;;;;5112829;28;20228;-77
2022/05/04 12:08:27;;;;;;;9.93;8.38;;;24.10;29.70;;;;;;5115082;28;20195;-75
2022/05/04 12:10:54;;;;;;;13.13;8.77;;;23.50;33.10;;;;;;5115127;28;20216;-76
2022/05/04 12:13:24;;;;;;;8.93;8.02;;;23.40;34.00;;;;;;5114305;28;20230;-77
2022/05/04 12:15:54;;;;;;;9.85;8.55;;;23.20;36.80;;;;;;5114924;28;20213;-75
2022/05/04 12:18:21;;;;;;;19.27;10.20;;;23.30;30.70;;;;;;5105084;28;20178;-77
2022/05/04 12:20:47;;;;;;;11.75;10.18;;;23.20;26.30;;;;;;5114648;28;20179;-77
2022/05/04 12:23:14;;;;;;;13.45;10.23;;;23.00;29.30;;;;;;5114524;28;20179;-76
2022/05/04 12:25:41;;;;;;;11.77;9.80;;;22.70;44.20;;;;;;5115062;28;20250;-77
2022/05/04 12:28:08;;;;;;;14.98;11.50;;;22.60;50.60;;;;;;5114409;28;20236;-78
2022/05/04 12:33:32;;;;;;;15.77;11.55;;;21.60;60.10;;;;;;5113681;28;20558;-77
2022/05/04 12:36:05;;;;;;;14.93;11.38;;;21.70;68.10;;;;;;5110119;28;20214;-77
2022/05/04 12:38:33;;;;;;;16.25;12.02;;;21.60;79.70;;;;;;5113899;28;20178;-76
2022/05/04 12:41:01;;;;;;;18.67;12.35;;;21.60;83.20;;;;;;5114418;28;20218;-76
2022/05/04 12:43:33;;;;;;;18.50;12.50;;;21.50;74.10;;;;;;5114569;28;20182;-80
2022/05/04 12:45:59;;;;;;;13.75;9.85;;;21.30;91.30;;;;;;5112752;28;20167;-75
2022/05/04 12:48:25;;;;;;;16.42;10.05;;;21.70;70.00;;;;;;5113792;28;20224;-75
2022/05/04 12:50:56;;;;;;;13.48;10.20;;;21.90;69.80;;;;;;5114128;28;20266;-76
2022/05/04 12:53:24;;;;;;;9.85;8.93;;;22.10;91.20;;;;;;5114235;28;20248;-76
2022/05/04 12:58:34;;;;;;;12.00;10.63;;;22.00;64.30;;;;;;5099097;28;20234;-75
2022/05/04 13:01:00;;;;;;;17.50;11.00;;;21.90;54.20;;;;;;5113603;28;20171;-75
2022/05/04 13:03:26;;;;;;;13.63;10.10;;;21.70;92.10;;;;;;5114139;28;20171;-76
2022/05/04 13:05:51;;;;;;;18.10;10.40;;;21.90;94.40;;;;;;5113168;28;20178;-78
2022/05/04 13:08:17;;;;;;;10.45;8.45;;;22.10;92.90;;;;;;5113682;28;20220;-77
2022/05/04 13:10:42;;;;;;;14.60;8.15;;;22.20;91.90;;;;;;5113700;28;20495;-77
2022/05/04 13:13:09;;;;;;;15.85;10.35;;;22.10;81.70;;;;;;5114068;28;20191;-78